sensor_id;sensor_type;location;lat;lon;timestamp;P1;durP1;ratioP1;P2;durP2;ratioP2
42978;SDS011;28616;44.746;19.678;2022-12-18T00:01:02;67.50;;;30.58;;
42978;SDS011;28616;44.746;19.678;2022-12-18T00:03:34;58.00;;;26.88;;
42978;SDS011;28616;44.746;19.678;2022-12-18T00:06:01;60.05;;;25.75;;
42978;SDS011;28616;44.746;19.678;2022-12-18T00:08:27;61.25;;;28.85;;
42978;SDS011;28616;44.746;19.678;2022-12-18T00:10:53;57.35;;;27.52;;
42978;SDS011;28616;44.746;19.678;2022-12-18T00:13:19;60.33;;;27.15;;
42978;SDS011;28616;44.746;19.678;2022-12-18T00:15:45;58.60;;;29.17;;
42978;SDS011;28616;44.746;19.678;2022-12-18T00:18:11;66.88;;;32.55;;
42978;SDS011;28616;44.746;19.678;2022-12-18T00:20:37;61.05;;;28.67;;
42978;SDS011;28616;44.746;19.678;2022-12-18T00:23:05;61.90;;;27.48;;
42978;SDS011;28616;44.746;19.678;2022-12-18T00:25:35;59.25;;;28.02;;
42978;SDS011;28616;44.746;19.678;2022-12-18T00:28:02;58.33;;;28.15;;
42978;SDS011;28616;44.746;19.678;2022-12-18T00:30:28;57.47;;;26.30;;
42978;SDS011;28616;44.746;19.678;2022-12-18T00:32:54;55.92;;;25.95;;
42978;SDS011;28616;44.746;19.678;2022-12-18T00:35:21;63.67;;;29.48;;
42978;SDS011;28616;44.746;19.678;2022-12-18T00:37:47;52.42;;;24.63;;
42978;SDS011;28616;44.746;19.678;2022-12-18T00:40:13;56.72;;;25.70;;
42978;SDS011;28616;44.746;19.678;2022-12-18T00:42:39;65.53;;;29.13;;
42978;SDS011;28616;44.746;19.678;2022-12-18T00:45:26;59.05;;;25.25;;
42978;SDS011;28616;44.746;19.678;2022-12-18T00:47:54;56.85;;;26.73;;
42978;SDS011;28616;44.746;19.678;2022-12-18T00:50:20;65.82;;;31.17;;
42978;SDS011;28616;44.746;19.678;2022-12-18T00:52:46;48.30;;;23.30;;
42978;SDS011;28616;44.746;19.678;2022-12-18T00:55:12;52.75;;;23.70;;
42978;SDS011;28616;44.746;19.678;2022-12-18T00:57:39;49.20;;;23.55;;
42978;SDS011;28616;44.746;19.678;2022-12-18T01:00:07;50.88;;;23.73;;
42978;SDS011;28616;44.746;19.678;2022-12-18T01:02:35;54.55;;;24.02;;
42978;SDS011;28616;44.746;19.678;2022-12-18T01:05:01;59.75;;;27.27;;
42978;SDS011;28616;44.746;19.678;2022-12-18T01:07:27;61.42;;;26.15;;
42978;SDS011;28616;44.746;19.678;2022-12-18T01:09:53;55.97;;;25.60;;
42978;SDS011;28616;44.746;19.678;2022-12-18T01:12:19;61.08;;;27.80;;
42978;SDS011;28616;44.746;19.678;2022-12-18T01:14:44;53.65;;;25.30;;
42978;SDS011;28616;44.746;19.678;2022-12-18T01:17:10;61.45;;;26.30;;
42978;SDS011;28616;44.746;19.678;2022-12-18T01:19:36;56.38;;;25.50;;
42978;SDS011;28616;44.746;19.678;2022-12-18T01:22:02;57.22;;;25.83;;
42978;SDS011;28616;44.746;19.678;2022-12-18T01:24:28;51.42;;;24.60;;
42978;SDS011;28616;44.746;19.678;2022-12-18T01:26:54;59.58;;;26.08;;
42978;SDS011;28616;44.746;19.678;2022-12-18T01:29:19;61.78;;;26.83;;
42978;SDS011;28616;44.746;19.678;2022-12-18T01:31:45;68.03;;;30.10;;
42978;SDS011;28616;44.746;19.678;2022-12-18T01:34:11;90.10;;;35.95;;
42978;SDS011;28616;44.746;19.678;2022-12-18T01:36:37;80.55;;;34.70;;
42978;SDS011;28616;44.746;19.678;2022-12-18T01:39:05;78.10;;;33.65;;
42978;SDS011;28616;44.746;19.678;2022-12-18T01:41:38;79.30;;;33.28;;
42978;SDS011;28616;44.746;19.678;2022-12-18T01:47:34;70.65;;;32.03;;
42978;SDS011;28616;44.746;19.678;2022-12-18T01:50:13;75.45;;;32.17;;
42978;SDS011;28616;44.746;19.678;2022-12-18T01:52:47;85.05;;;37.75;;
42978;SDS011;28616;44.746;19.678;2022-12-18T01:55:41;73.05;;;33.55;;
42978;SDS011;28616;44.746;19.678;2022-12-18T02:00:37;57.40;;;26.92;;
42978;SDS011;28616;44.746;19.678;2022-12-18T02:03:03;59.08;;;27.95;;
42978;SDS011;28616;44.746;19.678;2022-12-18T02:05:49;54.35;;;25.80;;
42978;SDS011;28616;44.746;19.678;2022-12-18T02:18:54;51.75;;;24.95;;
42978;SDS011;28616;44.746;19.678;2022-12-18T02:26:48;51.20;;;23.33;;
42978;SDS011;28616;44.746;19.678;2022-12-18T02:29:18;53.97;;;25.55;;
42978;SDS011;28616;44.746;19.678;2022-12-18T02:31:53;52.65;;;24.85;;
42978;SDS011;28616;44.746;19.678;2022-12-18T02:34:29;53.28;;;25.45;;
42978;SDS011;28616;44.746;19.678;2022-12-18T02:36:59;51.40;;;25.13;;
42978;SDS011;28616;44.746;19.678;2022-12-18T02:39:27;52.30;;;24.80;;
42978;SDS011;28616;44.746;19.678;2022-12-18T02:41:56;49.63;;;24.27;;
42978;SDS011;28616;44.746;19.678;2022-12-18T02:44:23;52.65;;;25.10;;
42978;SDS011;28616;44.746;19.678;2022-12-18T02:46:50;52.88;;;24.33;;
42978;SDS011;28616;44.746;19.678;2022-12-18T02:49:53;51.38;;;25.13;;
42978;SDS011;28616;44.746;19.678;2022-12-18T02:57:37;54.33;;;25.33;;
42978;SDS011;28616;44.746;19.678;2022-12-18T03:00:12;53.78;;;25.73;;
42978;SDS011;28616;44.746;19.678;2022-12-18T03:05:43;68.20;;;29.33;;
42978;SDS011;28616;44.746;19.678;2022-12-18T03:08:33;71.38;;;32.35;;
42978;SDS011;28616;44.746;19.678;2022-12-18T03:11:10;65.28;;;29.67;;
42978;SDS011;28616;44.746;19.678;2022-12-18T03:13:42;75.43;;;33.33;;
42978;SDS011;28616;44.746;19.678;2022-12-18T03:16:31;90.32;;;39.53;;
42978;SDS011;28616;44.746;19.678;2022-12-18T03:19:07;69.88;;;29.63;;
42978;SDS011;28616;44.746;19.678;2022-12-18T03:21:38;59.28;;;27.13;;
42978;SDS011;28616;44.746;19.678;2022-12-18T03:24:16;62.15;;;29.52;;
42978;SDS011;28616;44.746;19.678;2022-12-18T03:26:45;57.58;;;27.38;;
42978;SDS011;28616;44.746;19.678;2022-12-18T03:32:26;59.63;;;27.98;;
42978;SDS011;28616;44.746;19.678;2022-12-18T03:34:57;62.15;;;28.70;;
42978;SDS011;28616;44.746;19.678;2022-12-18T03:37:30;61.22;;;28.45;;
42978;SDS011;28616;44.746;19.678;2022-12-18T03:39:56;61.95;;;27.60;;
42978;SDS011;28616;44.746;19.678;2022-12-18T03:42:29;52.63;;;25.75;;
42978;SDS011;28616;44.746;19.678;2022-12-18T03:45:24;56.50;;;26.02;;
42978;SDS011;28616;44.746;19.678;2022-12-18T03:48:01;53.08;;;23.05;;
42978;SDS011;28616;44.746;19.678;2022-12-18T03:50:39;55.90;;;25.27;;
42978;SDS011;28616;44.746;19.678;2022-12-18T03:56:23;53.75;;;24.63;;
42978;SDS011;28616;44.746;19.678;2022-12-18T03:58:53;57.75;;;26.92;;
42978;SDS011;28616;44.746;19.678;2022-12-18T04:01:23;55.38;;;26.20;;
42978;SDS011;28616;44.746;19.678;2022-12-18T04:03:56;60.13;;;26.40;;
42978;SDS011;28616;44.746;19.678;2022-12-18T04:06:25;58.53;;;28.30;;
42978;SDS011;28616;44.746;19.678;2022-12-18T04:08:51;58.88;;;27.10;;
42978;SDS011;28616;44.746;19.678;2022-12-18T04:11:18;61.53;;;27.45;;
42978;SDS011;28616;44.746;19.678;2022-12-18T04:13:43;60.35;;;28.25;;
42978;SDS011;28616;44.746;19.678;2022-12-18T04:16:09;62.97;;;29.83;;
42978;SDS011;28616;44.746;19.678;2022-12-18T04:18:35;66.88;;;29.83;;
42978;SDS011;28616;44.746;19.678;2022-12-18T04:21:01;72.28;;;32.63;;
42978;SDS011;28616;44.746;19.678;2022-12-18T04:23:27;81.18;;;34.17;;
42978;SDS011;28616;44.746;19.678;2022-12-18T04:25:53;73.40;;;33.45;;
42978;SDS011;28616;44.746;19.678;2022-12-18T04:28:19;74.95;;;31.80;;
42978;SDS011;28616;44.746;19.678;2022-12-18T04:30:45;73.00;;;32.53;;
42978;SDS011;28616;44.746;19.678;2022-12-18T04:33:14;65.72;;;30.25;;
42978;SDS011;28616;44.746;19.678;2022-12-18T04:35:43;70.30;;;30.67;;
42978;SDS011;28616;44.746;19.678;2022-12-18T04:38:09;77.03;;;31.73;;
42978;SDS011;28616;44.746;19.678;2022-12-18T04:40:35;71.47;;;29.83;;
42978;SDS011;28616;44.746;19.678;2022-12-18T04:43:02;57.50;;;27.00;;
42978;SDS011;28616;44.746;19.678;2022-12-18T04:45:28;64.28;;;28.45;;
42978;SDS011;28616;44.746;19.678;2022-12-18T04:47:56;78.72;;;32.45;;
42978;SDS011;28616;44.746;19.678;2022-12-18T04:50:26;74.93;;;33.23;;
42978;SDS011;28616;44.746;19.678;2022-12-18T04:52:52;75.88;;;32.72;;
42978;SDS011;28616;44.746;19.678;2022-12-18T04:55:19;83.22;;;35.78;;
42978;SDS011;28616;44.746;19.678;2022-12-18T04:57:45;83.47;;;34.50;;
42978;SDS011;28616;44.746;19.678;2022-12-18T05:00:11;80.80;;;32.53;;
42978;SDS011;28616;44.746;19.678;2022-12-18T05:02:37;92.95;;;35.10;;
42978;SDS011;28616;44.746;19.678;2022-12-18T05:05:03;87.15;;;34.75;;
42978;SDS011;28616;44.746;19.678;2022-12-18T05:07:29;69.90;;;29.75;;
42978;SDS011;28616;44.746;19.678;2022-12-18T05:09:55;72.85;;;32.03;;
42978;SDS011;28616;44.746;19.678;2022-12-18T05:12:21;88.38;;;35.67;;
42978;SDS011;28616;44.746;19.678;2022-12-18T05:14:49;86.50;;;36.22;;
42978;SDS011;28616;44.746;19.678;2022-12-18T05:17:15;86.57;;;37.00;;
42978;SDS011;28616;44.746;19.678;2022-12-18T05:19:41;85.60;;;36.35;;
42978;SDS011;28616;44.746;19.678;2022-12-18T05:22:07;76.45;;;33.05;;
42978;SDS011;28616;44.746;19.678;2022-12-18T05:24:33;68.03;;;31.40;;
42978;SDS011;28616;44.746;19.678;2022-12-18T05:26:59;75.50;;;33.75;;
42978;SDS011;28616;44.746;19.678;2022-12-18T05:29:25;69.95;;;32.63;;
42978;SDS011;28616;44.746;19.678;2022-12-18T05:31:51;71.68;;;33.70;;
42978;SDS011;28616;44.746;19.678;2022-12-18T05:34:17;73.65;;;33.30;;
42978;SDS011;28616;44.746;19.678;2022-12-18T05:36:42;76.20;;;34.72;;
42978;SDS011;28616;44.746;19.678;2022-12-18T05:39:08;69.93;;;33.97;;
42978;SDS011;28616;44.746;19.678;2022-12-18T05:41:34;76.90;;;34.22;;
42978;SDS011;28616;44.746;19.678;2022-12-18T05:44:00;79.45;;;33.92;;
42978;SDS011;28616;44.746;19.678;2022-12-18T05:46:26;87.53;;;37.47;;
42978;SDS011;28616;44.746;19.678;2022-12-18T05:48:51;76.15;;;35.08;;
42978;SDS011;28616;44.746;19.678;2022-12-18T05:51:18;80.50;;;37.75;;
42978;SDS011;28616;44.746;19.678;2022-12-18T05:53:46;78.68;;;36.58;;
42978;SDS011;28616;44.746;19.678;2022-12-18T05:56:17;81.30;;;34.53;;
42978;SDS011;28616;44.746;19.678;2022-12-18T05:58:44;82.90;;;36.70;;
42978;SDS011;28616;44.746;19.678;2022-12-18T06:01:15;84.22;;;36.78;;
42978;SDS011;28616;44.746;19.678;2022-12-18T06:03:42;82.10;;;38.17;;
42978;SDS011;28616;44.746;19.678;2022-12-18T06:06:12;93.15;;;39.15;;
42978;SDS011;28616;44.746;19.678;2022-12-18T06:08:43;83.70;;;38.85;;
42978;SDS011;28616;44.746;19.678;2022-12-18T06:11:09;99.38;;;44.58;;
42978;SDS011;28616;44.746;19.678;2022-12-18T06:13:35;111.68;;;47.83;;
42978;SDS011;28616;44.746;19.678;2022-12-18T06:16:04;143.93;;;62.10;;
42978;SDS011;28616;44.746;19.678;2022-12-18T06:18:31;180.45;;;77.07;;
42978;SDS011;28616;44.746;19.678;2022-12-18T06:20:57;151.90;;;65.18;;
42978;SDS011;28616;44.746;19.678;2022-12-18T06:23:26;170.68;;;71.40;;
42978;SDS011;28616;44.746;19.678;2022-12-18T06:25:52;137.55;;;61.03;;
42978;SDS011;28616;44.746;19.678;2022-12-18T06:28:18;123.30;;;57.22;;
42978;SDS011;28616;44.746;19.678;2022-12-18T06:30:44;117.20;;;54.33;;
42978;SDS011;28616;44.746;19.678;2022-12-18T06:33:10;139.80;;;61.13;;
42978;SDS011;28616;44.746;19.678;2022-12-18T06:35:36;152.52;;;68.03;;
42978;SDS011;28616;44.746;19.678;2022-12-18T06:38:02;167.40;;;71.97;;
42978;SDS011;28616;44.746;19.678;2022-12-18T06:40:28;190.85;;;80.00;;
42978;SDS011;28616;44.746;19.678;2022-12-18T06:42:54;169.25;;;71.30;;
42978;SDS011;28616;44.746;19.678;2022-12-18T06:45:20;146.80;;;63.60;;
42978;SDS011;28616;44.746;19.678;2022-12-18T06:47:46;128.13;;;59.50;;
42978;SDS011;28616;44.746;19.678;2022-12-18T06:50:12;136.07;;;59.00;;
42978;SDS011;28616;44.746;19.678;2022-12-18T06:52:38;142.45;;;61.58;;
42978;SDS011;28616;44.746;19.678;2022-12-18T06:55:05;130.50;;;55.53;;
42978;SDS011;28616;44.746;19.678;2022-12-18T06:57:35;119.28;;;54.45;;
42978;SDS011;28616;44.746;19.678;2022-12-18T07:00:02;127.97;;;56.13;;
42978;SDS011;28616;44.746;19.678;2022-12-18T07:02:30;117.97;;;52.78;;
42978;SDS011;28616;44.746;19.678;2022-12-18T07:04:56;108.85;;;50.15;;
42978;SDS011;28616;44.746;19.678;2022-12-18T07:07:21;106.20;;;48.53;;
42978;SDS011;28616;44.746;19.678;2022-12-18T07:09:49;122.03;;;51.58;;
42978;SDS011;28616;44.746;19.678;2022-12-18T07:12:15;121.88;;;59.60;;
42978;SDS011;28616;44.746;19.678;2022-12-18T07:14:41;143.27;;;64.82;;
42978;SDS011;28616;44.746;19.678;2022-12-18T07:17:06;155.13;;;73.25;;
42978;SDS011;28616;44.746;19.678;2022-12-18T07:19:32;112.57;;;48.90;;
42978;SDS011;28616;44.746;19.678;2022-12-18T07:21:58;122.55;;;54.50;;
42978;SDS011;28616;44.746;19.678;2022-12-18T07:24:24;131.23;;;54.42;;
42978;SDS011;28616;44.746;19.678;2022-12-18T07:26:50;123.15;;;50.72;;
42978;SDS011;28616;44.746;19.678;2022-12-18T07:29:15;130.68;;;54.38;;
42978;SDS011;28616;44.746;19.678;2022-12-18T07:31:41;134.52;;;56.50;;
42978;SDS011;28616;44.746;19.678;2022-12-18T07:34:10;137.75;;;59.95;;
42978;SDS011;28616;44.746;19.678;2022-12-18T07:36:40;117.95;;;53.78;;
42978;SDS011;28616;44.746;19.678;2022-12-18T07:39:06;124.32;;;51.83;;
42978;SDS011;28616;44.746;19.678;2022-12-18T07:41:32;94.07;;;44.90;;
42978;SDS011;28616;44.746;19.678;2022-12-18T07:43:58;98.15;;;45.25;;
42978;SDS011;28616;44.746;19.678;2022-12-18T07:46:24;118.13;;;54.05;;
42978;SDS011;28616;44.746;19.678;2022-12-18T07:48:49;101.07;;;45.97;;
42978;SDS011;28616;44.746;19.678;2022-12-18T07:51:15;97.18;;;42.95;;
42978;SDS011;28616;44.746;19.678;2022-12-18T07:53:42;82.43;;;36.63;;
42978;SDS011;28616;44.746;19.678;2022-12-18T07:56:09;82.35;;;36.55;;
42978;SDS011;28616;44.746;19.678;2022-12-18T07:58:37;91.80;;;38.97;;
42978;SDS011;28616;44.746;19.678;2022-12-18T08:01:04;99.97;;;40.05;;
42978;SDS011;28616;44.746;19.678;2022-12-18T08:03:30;95.95;;;40.72;;
42978;SDS011;28616;44.746;19.678;2022-12-18T08:06:04;89.80;;;41.78;;
42978;SDS011;28616;44.746;19.678;2022-12-18T08:08:31;93.60;;;45.28;;
42978;SDS011;28616;44.746;19.678;2022-12-18T08:10:58;85.30;;;39.65;;
42978;SDS011;28616;44.746;19.678;2022-12-18T08:13:24;97.78;;;41.58;;
42978;SDS011;28616;44.746;19.678;2022-12-18T08:18:46;87.07;;;42.30;;
42978;SDS011;28616;44.746;19.678;2022-12-18T08:21:16;98.00;;;46.22;;
42978;SDS011;28616;44.746;19.678;2022-12-18T08:23:45;91.63;;;43.45;;
42978;SDS011;28616;44.746;19.678;2022-12-18T08:26:11;78.18;;;35.58;;
42978;SDS011;28616;44.746;19.678;2022-12-18T08:28:38;71.40;;;32.28;;
42978;SDS011;28616;44.746;19.678;2022-12-18T08:31:04;82.57;;;36.65;;
42978;SDS011;28616;44.746;19.678;2022-12-18T08:33:31;87.72;;;41.05;;
42978;SDS011;28616;44.746;19.678;2022-12-18T08:36:00;105.80;;;46.50;;
42978;SDS011;28616;44.746;19.678;2022-12-18T08:38:26;76.97;;;34.72;;
42978;SDS011;28616;44.746;19.678;2022-12-18T08:41:01;105.10;;;49.10;;
42978;SDS011;28616;44.746;19.678;2022-12-18T08:43:28;105.43;;;48.55;;
42978;SDS011;28616;44.746;19.678;2022-12-18T08:46:16;84.05;;;39.08;;
42978;SDS011;28616;44.746;19.678;2022-12-18T08:48:45;90.60;;;42.25;;
42978;SDS011;28616;44.746;19.678;2022-12-18T08:51:11;100.15;;;42.78;;
42978;SDS011;28616;44.746;19.678;2022-12-18T08:53:37;148.00;;;61.70;;
42978;SDS011;28616;44.746;19.678;2022-12-18T08:56:03;165.45;;;69.43;;
42978;SDS011;28616;44.746;19.678;2022-12-18T08:58:30;117.05;;;52.03;;
42978;SDS011;28616;44.746;19.678;2022-12-18T09:01:00;83.40;;;36.85;;
42978;SDS011;28616;44.746;19.678;2022-12-18T09:03:27;153.30;;;70.78;;
42978;SDS011;28616;44.746;19.678;2022-12-18T09:05:52;126.75;;;55.25;;
42978;SDS011;28616;44.746;19.678;2022-12-18T09:08:18;94.78;;;44.35;;
42978;SDS011;28616;44.746;19.678;2022-12-18T09:10:44;80.55;;;37.75;;
42978;SDS011;28616;44.746;19.678;2022-12-18T09:13:11;90.93;;;40.97;;
42978;SDS011;28616;44.746;19.678;2022-12-18T09:15:55;97.47;;;43.63;;
42978;SDS011;28616;44.746;19.678;2022-12-18T09:18:21;120.50;;;50.78;;
42978;SDS011;28616;44.746;19.678;2022-12-18T09:20:48;117.07;;;50.05;;
42978;SDS011;28616;44.746;19.678;2022-12-18T09:23:16;136.55;;;57.85;;
42978;SDS011;28616;44.746;19.678;2022-12-18T09:25:42;124.20;;;57.28;;
42978;SDS011;28616;44.746;19.678;2022-12-18T09:28:12;93.20;;;41.88;;
42978;SDS011;28616;44.746;19.678;2022-12-18T09:30:43;114.43;;;46.88;;
42978;SDS011;28616;44.746;19.678;2022-12-18T09:33:14;117.00;;;44.53;;
42978;SDS011;28616;44.746;19.678;2022-12-18T09:35:40;114.97;;;43.78;;
42978;SDS011;28616;44.746;19.678;2022-12-18T09:38:08;136.05;;;52.83;;
42978;SDS011;28616;44.746;19.678;2022-12-18T09:40:41;113.60;;;47.65;;
42978;SDS011;28616;44.746;19.678;2022-12-18T09:43:47;98.93;;;45.38;;
42978;SDS011;28616;44.746;19.678;2022-12-18T09:46:22;76.97;;;36.67;;
42978;SDS011;28616;44.746;19.678;2022-12-18T09:48:52;80.47;;;38.38;;
42978;SDS011;28616;44.746;19.678;2022-12-18T09:51:39;95.97;;;42.00;;
42978;SDS011;28616;44.746;19.678;2022-12-18T09:54:22;93.97;;;37.70;;
42978;SDS011;28616;44.746;19.678;2022-12-18T09:57:01;76.75;;;35.63;;
42978;SDS011;28616;44.746;19.678;2022-12-18T09:59:37;79.63;;;35.15;;
42978;SDS011;28616;44.746;19.678;2022-12-18T10:02:14;68.38;;;34.17;;
42978;SDS011;28616;44.746;19.678;2022-12-18T10:05:04;90.28;;;43.80;;
42978;SDS011;28616;44.746;19.678;2022-12-18T10:10:50;143.18;;;65.25;;
42978;SDS011;28616;44.746;19.678;2022-12-18T10:16:15;98.07;;;49.67;;
42978;SDS011;28616;44.746;19.678;2022-12-18T10:18:48;92.65;;;43.90;;
42978;SDS011;28616;44.746;19.678;2022-12-18T10:21:19;74.90;;;35.65;;
42978;SDS011;28616;44.746;19.678;2022-12-18T10:24:10;74.30;;;36.22;;
42978;SDS011;28616;44.746;19.678;2022-12-18T10:27:16;89.80;;;41.72;;
42978;SDS011;28616;44.746;19.678;2022-12-18T10:29:46;73.40;;;36.08;;
42978;SDS011;28616;44.746;19.678;2022-12-18T10:32:19;78.03;;;38.10;;
42978;SDS011;28616;44.746;19.678;2022-12-18T10:34:48;74.70;;;36.80;;
42978;SDS011;28616;44.746;19.678;2022-12-18T10:37:16;71.22;;;35.33;;
42978;SDS011;28616;44.746;19.678;2022-12-18T10:39:44;68.53;;;34.53;;
42978;SDS011;28616;44.746;19.678;2022-12-18T10:42:14;63.60;;;33.25;;
42978;SDS011;28616;44.746;19.678;2022-12-18T10:47:11;61.78;;;31.48;;
42978;SDS011;28616;44.746;19.678;2022-12-18T10:49:42;82.13;;;39.80;;
42978;SDS011;28616;44.746;19.678;2022-12-18T10:52:21;63.88;;;33.45;;
42978;SDS011;28616;44.746;19.678;2022-12-18T10:54:57;66.60;;;33.20;;
42978;SDS011;28616;44.746;19.678;2022-12-18T10:57:39;60.15;;;30.10;;
42978;SDS011;28616;44.746;19.678;2022-12-18T11:00:28;71.72;;;35.55;;
42978;SDS011;28616;44.746;19.678;2022-12-18T11:02:54;72.00;;;36.90;;
42978;SDS011;28616;44.746;19.678;2022-12-18T11:05:31;83.28;;;39.67;;
42978;SDS011;28616;44.746;19.678;2022-12-18T11:07:58;75.68;;;35.70;;
42978;SDS011;28616;44.746;19.678;2022-12-18T11:10:36;67.70;;;33.53;;
42978;SDS011;28616;44.746;19.678;2022-12-18T11:13:18;64.78;;;32.15;;
42978;SDS011;28616;44.746;19.678;2022-12-18T11:15:47;72.63;;;33.88;;
42978;SDS011;28616;44.746;19.678;2022-12-18T11:18:34;70.57;;;35.08;;
42978;SDS011;28616;44.746;19.678;2022-12-18T11:21:10;71.68;;;35.13;;
42978;SDS011;28616;44.746;19.678;2022-12-18T11:23:44;77.70;;;36.22;;
42978;SDS011;28616;44.746;19.678;2022-12-18T11:26:20;86.95;;;41.60;;
42978;SDS011;28616;44.746;19.678;2022-12-18T11:29:09;72.13;;;35.35;;
42978;SDS011;28616;44.746;19.678;2022-12-18T11:31:42;67.55;;;32.47;;
42978;SDS011;28616;44.746;19.678;2022-12-18T11:42:46;74.15;;;35.15;;
42978;SDS011;28616;44.746;19.678;2022-12-18T11:45:24;60.53;;;30.52;;
42978;SDS011;28616;44.746;19.678;2022-12-18T11:48:14;84.72;;;39.42;;
42978;SDS011;28616;44.746;19.678;2022-12-18T11:50:58;81.75;;;37.88;;
42978;SDS011;28616;44.746;19.678;2022-12-18T11:53:27;94.55;;;41.10;;
42978;SDS011;28616;44.746;19.678;2022-12-18T11:58:59;72.68;;;35.13;;
42978;SDS011;28616;44.746;19.678;2022-12-18T12:01:44;110.35;;;55.47;;
42978;SDS011;28616;44.746;19.678;2022-12-18T12:04:39;72.60;;;33.83;;
42978;SDS011;28616;44.746;19.678;2022-12-18T12:12:39;71.88;;;35.90;;
42978;SDS011;28616;44.746;19.678;2022-12-18T12:30:06;91.13;;;41.45;;
42978;SDS011;28616;44.746;19.678;2022-12-18T12:32:37;66.78;;;32.28;;
42978;SDS011;28616;44.746;19.678;2022-12-18T12:38:05;74.43;;;34.60;;
42978;SDS011;28616;44.746;19.678;2022-12-18T12:40:33;77.50;;;37.50;;
42978;SDS011;28616;44.746;19.678;2022-12-18T12:46:07;84.57;;;39.05;;
42978;SDS011;28616;44.746;19.678;2022-12-18T12:48:37;87.28;;;41.03;;
42978;SDS011;28616;44.746;19.678;2022-12-18T12:51:20;75.43;;;36.47;;
42978;SDS011;28616;44.746;19.678;2022-12-18T12:54:01;91.93;;;40.97;;
42978;SDS011;28616;44.746;19.678;2022-12-18T12:56:36;120.30;;;52.05;;
42978;SDS011;28616;44.746;19.678;2022-12-18T12:59:32;84.82;;;38.63;;
42978;SDS011;28616;44.746;19.678;2022-12-18T13:04:57;80.55;;;36.85;;
42978;SDS011;28616;44.746;19.678;2022-12-18T13:07:47;77.13;;;36.05;;
42978;SDS011;28616;44.746;19.678;2022-12-18T13:12:57;70.95;;;33.65;;
42978;SDS011;28616;44.746;19.678;2022-12-18T13:25:52;108.60;;;46.78;;
42978;SDS011;28616;44.746;19.678;2022-12-18T13:36:44;81.43;;;35.83;;
42978;SDS011;28616;44.746;19.678;2022-12-18T13:41:48;84.43;;;38.33;;
42978;SDS011;28616;44.746;19.678;2022-12-18T13:45:06;87.43;;;37.50;;
42978;SDS011;28616;44.746;19.678;2022-12-18T13:48:18;106.95;;;46.53;;
42978;SDS011;28616;44.746;19.678;2022-12-18T13:50:49;100.88;;;45.00;;
42978;SDS011;28616;44.746;19.678;2022-12-18T13:53:27;103.45;;;47.38;;
42978;SDS011;28616;44.746;19.678;2022-12-18T13:55:57;128.15;;;57.05;;
42978;SDS011;28616;44.746;19.678;2022-12-18T13:58:23;100.18;;;46.20;;
42978;SDS011;28616;44.746;19.678;2022-12-18T14:00:49;93.97;;;43.78;;
42978;SDS011;28616;44.746;19.678;2022-12-18T14:03:19;88.05;;;40.63;;
42978;SDS011;28616;44.746;19.678;2022-12-18T14:05:51;92.10;;;43.65;;
42978;SDS011;28616;44.746;19.678;2022-12-18T14:08:22;78.90;;;38.53;;
42978;SDS011;28616;44.746;19.678;2022-12-18T14:10:51;116.68;;;57.40;;
42978;SDS011;28616;44.746;19.678;2022-12-18T14:15:46;78.15;;;37.50;;
42978;SDS011;28616;44.746;19.678;2022-12-18T14:20:55;143.43;;;63.78;;
42978;SDS011;28616;44.746;19.678;2022-12-18T14:23:27;108.13;;;46.10;;
42978;SDS011;28616;44.746;19.678;2022-12-18T14:25:53;127.10;;;50.75;;
42978;SDS011;28616;44.746;19.678;2022-12-18T14:28:19;99.95;;;43.50;;
42978;SDS011;28616;44.746;19.678;2022-12-18T14:30:47;98.70;;;42.75;;
42978;SDS011;28616;44.746;19.678;2022-12-18T14:35:52;933.30;;;296.52;;
42978;SDS011;28616;44.746;19.678;2022-12-18T14:38:27;793.58;;;325.58;;
42978;SDS011;28616;44.746;19.678;2022-12-18T14:40:56;157.95;;;72.95;;
42978;SDS011;28616;44.746;19.678;2022-12-18T14:43:40;124.18;;;54.20;;
42978;SDS011;28616;44.746;19.678;2022-12-18T14:49:04;124.43;;;59.17;;
42978;SDS011;28616;44.746;19.678;2022-12-18T14:52:03;152.32;;;68.53;;
42978;SDS011;28616;44.746;19.678;2022-12-18T14:54:41;142.90;;;68.70;;
42978;SDS011;28616;44.746;19.678;2022-12-18T14:57:20;139.98;;;66.28;;
42978;SDS011;28616;44.746;19.678;2022-12-18T14:59:48;182.07;;;86.68;;
42978;SDS011;28616;44.746;19.678;2022-12-18T15:02:18;581.53;;;251.52;;
42978;SDS011;28616;44.746;19.678;2022-12-18T15:04:47;720.40;;;309.33;;
42978;SDS011;28616;44.746;19.678;2022-12-18T15:07:24;222.10;;;90.32;;
42978;SDS011;28616;44.746;19.678;2022-12-18T15:18:01;337.42;;;131.15;;
42978;SDS011;28616;44.746;19.678;2022-12-18T15:25:49;248.73;;;107.60;;
42978;SDS011;28616;44.746;19.678;2022-12-18T15:28:22;346.48;;;143.45;;
42978;SDS011;28616;44.746;19.678;2022-12-18T15:31:03;324.65;;;141.60;;
42978;SDS011;28616;44.746;19.678;2022-12-18T15:33:40;276.67;;;119.15;;
42978;SDS011;28616;44.746;19.678;2022-12-18T15:36:24;323.52;;;133.10;;
42978;SDS011;28616;44.746;19.678;2022-12-18T15:38:56;350.65;;;147.57;;
42978;SDS011;28616;44.746;19.678;2022-12-18T15:41:23;298.63;;;128.85;;
42978;SDS011;28616;44.746;19.678;2022-12-18T15:43:49;365.15;;;150.80;;
42978;SDS011;28616;44.746;19.678;2022-12-18T15:46:20;717.92;;;275.52;;
42978;SDS011;28616;44.746;19.678;2022-12-18T15:48:48;701.28;;;235.57;;
42978;SDS011;28616;44.746;19.678;2022-12-18T15:51:17;650.80;;;218.43;;
42978;SDS011;28616;44.746;19.678;2022-12-18T15:53:54;425.40;;;139.27;;
42978;SDS011;28616;44.746;19.678;2022-12-18T15:56:22;289.13;;;101.80;;
42978;SDS011;28616;44.746;19.678;2022-12-18T15:59:10;210.25;;;83.05;;
42978;SDS011;28616;44.746;19.678;2022-12-18T16:01:37;299.83;;;100.10;;
42978;SDS011;28616;44.746;19.678;2022-12-18T16:04:03;176.20;;;73.93;;
42978;SDS011;28616;44.746;19.678;2022-12-18T16:06:29;174.93;;;74.78;;
42978;SDS011;28616;44.746;19.678;2022-12-18T16:08:55;188.35;;;80.45;;
42978;SDS011;28616;44.746;19.678;2022-12-18T16:11:27;211.07;;;87.97;;
42978;SDS011;28616;44.746;19.678;2022-12-18T16:14:12;161.68;;;71.57;;
42978;SDS011;28616;44.746;19.678;2022-12-18T16:16:47;128.27;;;55.78;;
42978;SDS011;28616;44.746;19.678;2022-12-18T16:19:14;137.13;;;62.63;;
42978;SDS011;28616;44.746;19.678;2022-12-18T16:21:40;139.63;;;60.28;;
42978;SDS011;28616;44.746;19.678;2022-12-18T16:24:08;138.82;;;62.20;;
42978;SDS011;28616;44.746;19.678;2022-12-18T16:26:40;125.50;;;59.00;;
42978;SDS011;28616;44.746;19.678;2022-12-18T16:29:07;133.02;;;60.40;;
42978;SDS011;28616;44.746;19.678;2022-12-18T16:31:33;139.38;;;62.63;;
42978;SDS011;28616;44.746;19.678;2022-12-18T16:34:20;159.57;;;68.32;;
42978;SDS011;28616;44.746;19.678;2022-12-18T16:36:51;135.63;;;59.70;;
42978;SDS011;28616;44.746;19.678;2022-12-18T16:39:21;133.00;;;57.55;;
42978;SDS011;28616;44.746;19.678;2022-12-18T16:41:47;243.85;;;97.55;;